Tiempo atmosférico en la estación meteorológica de Medina De Rioseco, Valladolid (731 m.)



Fecha
DESCASC
Temp. máxima en grados centígrados (hora)
DESCASC
Temp. mínima en grados centígrados (hora)
DESCASC
Temp. media en grados centígrados
DESCASC
Racha de viento máxima en m/sg (hora)
DESCASC
Velocidad máxima media en intervalos de 10 minutos(hora)
DESCASC
Precipitaciones diarias en mm
DESCASC
Precipitaciones de 00:00 a 06:00 en mm
DESCASC
Precipitaciones de 06:00 a 12:00 en mm
DESCASC
Precipitaciones de 12:00 a 18:00 en mm
DESCASC
Precipitaciones de 18:00 a 24:00 en mm
DESCASC
17-09-2020 27.4 (16:20) 17.4 (05:30) 22.4 14.72 (23:20) 7.22 (19:00) 0.4 0.2 0.2 0 0
15-09-2020 27.4 (17:00) 13.1 (06:20) 20.3 8.61 (17:30) 5 (17:00) 0.6 0.6 0 0 0
14-09-2020 30.4 (17:10) 16 (19:40) 23.2 30.28 (19:30) 9.72 (19:30) 7.6 0 0 0 7.6
13-09-2020 33.3 (18:00) 13.2 (00:00) 23.2 8.89 (00:10) 4.72 (00:20) 0 0 0 0 0
12-09-2020 30.9 (18:30) 12.3 (08:10) 21.6 7.5 (22:50) 4.44 (21:10) 0 0 0 0 0
11-09-2020 29.8 (16:40) 11.9 (00:00) 20.8 6.39 (12:00) 3.61 (09:30) 0 0 0 0 0
10-09-2020 28.7 (18:20) 11.1 (00:00) 19.9 8.89 (00:10) 5.28 (00:10) 0 0 0 0 0
09-09-2020 28.7 (17:00) 8.4 (08:30) 18.6 9.72 (23:10) 6.11 (22:30) 0 0 0 0 0
08-09-2020 27 (17:30) 7.9 (00:00) 17.5 9.72 (13:50) 6.11 (00:10) 0 0 0 0 0
07-09-2020 21.9 (16:10) 8.8 (08:10) 15.3 13.61 (11:50) 7.22 (12:00) 0 0 0 0 0
06-09-2020 24.9 (16:30) 13.5 (00:00) 19.2 12.78 (11:00) 7.22 (21:00) 0 0 0 0 0
05-09-2020 30.7 (16:00) 13.8 (00:00) 22.3 14.72 (21:00) 8.06 (22:00) 0 0 0 0 0
04-09-2020 33.4 (18:20) 9.7 (00:00) 21.6 7.22 (16:00) 3.61 (16:40) 0 0 0 0 0
03-09-2020 30.5 (17:20) 8.3 (00:00) 19.4 4.72 (15:20) 3.06 (01:40) 0 0 0 0 0
02-09-2020 27 (18:50) 10 (00:00) 18.5 11.11 (00:10) 6.67 (00:10) 0 0 0 0 0
01-09-2020 27.6 (17:10) 12.1 (00:00) 19.9 14.72 (22:00) 8.61 (23:40) 0 0 0 0 0
31-08-2020 24 (18:20) 5.4 (00:00) 14.7 6.67 (14:00) 3.33 (05:20) 0 0 0 0 0
30-08-2020 20.4 (17:20) 2.9 (00:00) 11.6 9.17 (23:00) 5.56 (21:40) 0 0 0 0 0
29-08-2020 21.3 (18:00) 6.8 (00:00) 14 12.22 (15:50) 6.94 (16:40) 0 0 0 0 0
28-08-2020 26.4 (16:50) 14.1 (00:00) 20.3 10.28 (20:20) 6.94 (20:20) 0 0 0 0 0
27-08-2020 33.6 (17:50) 14.8 (00:00) 24.2 8.61 (21:20) 4.72 (20:40) 0 0 0 0 0
26-08-2020 33.8 (17:30) 13.2 (00:00) 23.5 6.39 (18:00) 3.61 (18:00) 0 0 0 0 0
25-08-2020 34.3 (18:10) 10.4 (00:00) 22.3 9.17 (16:00) 5.28 (15:40) 0 0 0 0 0
24-08-2020 30.1 (17:50) 12.1 (08:00) 21.1 9.17 (10:00) 5 (09:40) 0 0 0 0 0
23-08-2020 28.6 (18:10) 11.8 (00:00) 20.2 10.28 (22:40) 6.11 (23:00) 0 0 0 0 0
22-08-2020 27.6 (18:30) 8.4 (00:00) 18 7.78 (17:00) 3.61 (23:59) 0 0 0 0 0
21-08-2020 25.8 (18:00) 14.4 (23:59) 20.1 10 (17:00) 6.11 (18:10) 2 1.4 0.6 0 0

Gráficas

Temp. máximas Temp. mínimas Temp. medias Precipitaciones Rachas de viento máximas Velocidades máximas media en intervalos de 10 minutos

Datos horarios

Fecha y hora oficial Temperatura (ºC) Velocidad del viento (km/h) Dirección del viento Racha (km/h) Dirección de racha Precipitación (mm) Presión (hPa) Tendencia (hPa) Humedad (%)
2020-09-19 23:00:00 15 10 Oeste 19 Oeste 0 -- -- 87
2020-09-19 22:00:00 15.2 13 Oeste 26 Sudoeste 0 -- -- 83
2020-09-19 21:00:00 16.2 13 Oeste 32 Oeste 0 -- -- 76
2020-09-19 20:00:00 17.7 15 Oeste 25 Oeste 0 -- -- 66
2020-09-19 19:00:00 18.4 14 Oeste 31 Oeste 0 -- -- 71
2020-09-19 18:00:00 18.9 20 Noroeste 36 Oeste 0 -- -- 68
2020-09-19 17:00:00 20.8 24 Oeste 41 Oeste 0 -- -- 64
2020-09-19 16:00:00 20.1 21 Oeste 39 Oeste 0 -- -- 70
2020-09-19 15:00:00 18.7 21 Oeste 36 Oeste 0 -- -- 77
2020-09-19 14:00:00 16.6 17 Oeste 31 Oeste 0 -- -- 86
2020-09-19 13:00:00 15.3 17 Oeste 28 Oeste 0.2 -- -- 92
2020-09-19 12:00:00 14.7 14 Oeste 24 Oeste 0.8 -- -- 94
2020-09-19 11:00:00 14.1 11 Oeste 15 Oeste 1.4 -- -- 94
2020-09-19 10:00:00 13.6 3 Sur 17 Norte 1.6 -- -- 93
2020-09-19 09:00:00 13.4 7 Nordeste 19 Este 3.6 -- -- 93
2020-09-19 08:00:00 13.4 10 Este 27 Sur 4.6 -- -- 92
2020-09-19 07:00:00 13.7 12 Sur 26 Sur 0.4 -- -- 91
2020-09-19 06:00:00 13.7 5 Sudeste 19 Sur 0 -- -- 89
2020-09-19 05:00:00 13.8 6 Sur 14 Sudeste 0 -- -- 89
2020-09-19 04:00:00 14.1 6 Sur 11 Sur 0.6 -- -- 88
2020-09-19 03:00:00 13.9 7 Sur 19 Sur 0.4 -- -- 85
2020-09-19 02:00:00 14.1 2 Oeste 29 Sur 0 -- -- 82
2020-09-19 01:00:00 14.4 11 Sudeste 22 Sur 0 -- -- 79
2020-09-19 00:00:00 14.1 9 Sudeste 32 Sur 0.2 -- -- 82
2020-09-18 23:00:00 14.8 8 Sur 19 Sur 0 -- -- 76
2020-09-18 22:00:00 15.2 2 Este 12 Sudoeste 0 -- -- 75
2020-09-18 21:00:00 15.4 5 Sudoeste 22 Oeste 0 -- -- 77
2020-09-18 20:00:00 15.4 15 Sudoeste 55 Sur 0 -- -- 82
2020-09-18 19:00:00 21.9 16 Sur 48 Sur 0 -- -- 47
2020-09-18 18:00:00 22.5 8 Sudoeste 26 Oeste 0 -- -- 46
2020-09-18 17:00:00 22.9 13 Sudoeste 31 Oeste 0 -- -- 44
2020-09-18 16:00:00 23.7 18 Oeste 33 Sudoeste 0 -- -- 43
2020-09-18 15:00:00 22.4 14 Sudoeste 28 Sur 0 -- -- 49
2020-09-18 14:00:00 21.2 11 Sudoeste 28 Sur 0 -- -- 58
2020-09-18 13:00:00 20 15 Sudoeste 30 Sur 0 -- -- 63
2020-09-18 12:00:00 18.6 13 Sur 30 Sur 0 -- -- 68
2020-09-18 11:00:00 16.7 17 Sur 31 Sur 0 -- -- 83
2020-09-18 10:00:00 14.3 21 Sur 36 Sur 0.2 -- -- 89
2020-09-18 09:00:00 12.4 7 Sudeste 15 Nordeste 0.8 -- -- 87
2020-09-18 08:00:00 12.9 10 Oeste 47 Sudoeste 2.4 -- -- 84
2020-09-18 07:00:00 14 7 Sudeste 34 Sur 3.2 -- -- 88
2020-09-18 06:00:00 15.7 12 Sur 25 Sur 2 -- -- 89
2020-09-18 05:00:00 16.3 3 Este 12 Este 0 -- -- 83
2020-09-18 04:00:00 16.5 5 Este 12 Este 0 -- -- 82
2020-09-18 03:00:00 16.4 3 Norte 8 Sudeste 0 -- -- 84
2020-09-18 02:00:00 16.5 5 Sur 16 Sur 0 -- -- 81
2020-09-18 01:00:00 16.9 14 Sudoeste 48 Sudoeste 0.4 -- -- 76
2020-09-18 00:00:00 19.6 18 Sudoeste 53 Sur 0 -- -- 64
2020-09-17 23:00:00 21.8 21 Sur 30 Sudeste 0 -- -- 58
2020-09-17 22:00:00 22.2 11 Sur 30 Sur 0 -- -- 56
2020-09-17 21:00:00 22.7 13 Sur 32 Sur 0 -- -- 53
2020-09-17 20:00:00 24.1 19 Sur 40 Sur 0 -- -- 50
2020-09-17 19:00:00 25.8 26 Sur 45 Sur 0 -- -- 45
2020-09-17 18:00:00 27.2 19 Sur 36 Sur 0 -- -- 38
2020-09-17 17:00:00 26.8 19 Sur 36 Sur 0 -- -- 39
2020-09-17 16:00:00 26.7 16 Sur 34 Sur 0 -- -- 42
2020-09-17 15:00:00 25.6 15 Sur 31 Sudoeste 0 -- -- 44
2020-09-17 14:00:00 24.1 9 Sudoeste 30 Sudoeste 0 -- -- 51
2020-09-17 13:00:00 23.1 15 Sur 33 Sur 0 -- -- 56
2020-09-17 12:00:00 21.5 14 Sur 25 Sur 0 -- -- 64
2020-09-17 11:00:00 18.7 9 Sudeste 21 Sur 0.2 -- -- 74
2020-09-17 10:00:00 18.7 9 Sur 16 Sudeste 0 -- -- 72
2020-09-17 09:00:00 18 5 Sur 18 Este 0 -- -- 74
2020-09-17 08:00:00 17.8 10 Este 20 Este 0 -- -- 73
2020-09-17 07:00:00 17.7 5 Nordeste 9 Norte 0 -- -- 76
2020-09-17 06:00:00 17.8 6 Este 12 Este 0 -- -- 73
2020-09-17 05:00:00 17.6 4 Nordeste 11 Nordeste 0.2 -- -- 78
2020-09-17 04:00:00 19 3 Nordeste 23 Sur 0 -- -- 66
2020-09-17 03:00:00 19.1 14 Sur 36 Sur 0 -- -- 64
2020-09-17 02:00:00 21 9 Sudoeste 18 Oeste 0 -- -- 50
2020-09-17 01:00:00 20.1 2 Oeste 21 Este 0 -- -- 64
2020-09-17 00:00:00 20.8 10 Norte 17 Norte 0 -- -- 61
2020-09-16 23:00:00 21.4 3 Oeste 13 Este 0 -- -- 56
2020-09-16 22:00:00 22.2 4 Nordeste 10 Este 0 -- -- 50
2020-09-16 21:00:00 23.3 4 Nordeste 9 Nordeste 0 -- -- 45
2020-09-16 20:00:00 26.1 5 Nordeste 12 Nordeste 0 -- -- 37
2020-09-16 19:00:00 27.8 8 Este 16 Sudeste 0 -- -- 32
2020-09-16 18:00:00 28.7 5 Este 21 Sudeste 0 -- -- 29
2020-09-16 17:00:00 28.6 8 Sur 17 Sur 0 -- -- 30
2020-09-16 16:00:00 28.8 10 Sur 24 Sur 0 -- -- 31
2020-09-16 15:00:00 27.5 12 Sur 26 Este 0 -- -- 36
2020-09-16 14:00:00 26.6 10 Nordeste 18 Nordeste 0 -- -- 40
2020-09-16 13:00:00 24.8 7 Norte 15 Nordeste 0 -- -- 46
2020-09-16 12:00:00 21.7 6 Norte 12 Norte 0 -- -- 59
2020-09-16 11:00:00 18.6 4 Nordeste 9 Nordeste 0 -- -- 71
2020-09-16 10:00:00 15.2 4 Nordeste 9 Nordeste 0 -- -- 82
2020-09-16 09:00:00 12.2 4 Nordeste 10 Nordeste 0 -- -- 90
2020-09-16 08:00:00 10.6 0 Calma 6 Nordeste 0 -- -- 89
2020-09-16 07:00:00 11.9 5 Nordeste 9 Este 0 -- -- 90
2020-09-16 06:00:00 11.1 3 Nordeste 5 Norte 0 -- -- 88
2020-09-16 05:00:00 11.1 0 Calma 4 Oeste 0 -- -- 85
2020-09-16 04:00:00 11.9 0 Calma 3 Sur 0 -- -- 83
2020-09-16 03:00:00 12.6 0 Calma 0 Calma 0 -- -- 81
2020-09-16 02:00:00 13.8 2 Sur 4 Sur 0 -- -- 78
2020-09-16 01:00:00 14.6 0 Calma 4 Noroeste 0 -- -- 76
2020-09-16 00:00:00 15 0 Calma 4 Oeste 0 -- -- 75
2020-09-15 23:00:00 15.3 4 Oeste 6 Sur 0 -- -- 73
2020-09-15 22:00:00 16.9 4 Sur 5 Sudeste 0 -- -- 68
2020-09-15 21:00:00 19.7 0 Calma 5 Sur 0 -- -- 59
2020-09-15 20:00:00 24.5 4 Oeste 13 Sudoeste 0 -- -- 46
2020-09-15 19:00:00 26.4 13 Sudoeste 21 Oeste 0 -- -- 39
2020-09-15 18:00:00 27.2 13 Oeste 31 Oeste 0 -- -- 37
2020-09-15 17:00:00 27.4 18 Oeste 29 Oeste 0 -- -- 40
2020-09-15 16:00:00 26.2 9 Oeste 24 Oeste 0 -- -- 42
2020-09-15 15:00:00 25.7 15 Oeste 23 Oeste 0 -- -- 46
2020-09-15 14:00:00 24.9 13 Oeste 24 Oeste 0 -- -- 50
2020-09-15 13:00:00 23.6 8 Oeste 14 Sudoeste 0 -- -- 61
2020-09-15 12:00:00 22.4 8 Sudoeste 15 Sur 0 -- -- 62
2020-09-15 11:00:00 20.4 4 Sudoeste 13 Sur 0 -- -- 72
2020-09-15 10:00:00 18 3 Sudeste 8 Nordeste 0 -- -- 82
2020-09-15 09:00:00 15.5 4 Sur 9 Sudeste 0 -- -- 88
2020-09-15 08:00:00 13.7 0 Calma 5 Este 0 -- -- 91
2020-09-15 07:00:00 13.7 3 Nordeste 8 Nordeste 0 -- -- 90
2020-09-15 06:00:00 13.4 0 Calma 9 Sur 0 -- -- 87
2020-09-15 05:00:00 13.9 0 Calma 6 Sudeste 0 -- -- 87
2020-09-15 04:00:00 15.6 4 Sur 11 Sudeste 0 -- -- 82
2020-09-15 03:00:00 16.9 7 Nordeste 11 Sudeste 0 -- -- 82
2020-09-15 02:00:00 17 3 Sur 8 Oeste 0 -- -- 89
2020-09-15 01:00:00 17.1 2 Sudeste 15 Oeste 0.6 -- -- 87
2020-09-15 00:00:00 17.9 9 Sur 18 Sur 1 -- -- 80
2020-09-14 23:00:00 18 10 Sudeste 19 Sudeste 0 -- -- 79
2020-09-14 22:00:00 18.1 7 Sudeste 23 Este 0.6 -- -- 79
2020-09-14 21:00:00 16.9 7 Sudeste 22 Sur 0 -- -- 84
2020-09-14 20:00:00 16.6 10 Sudeste 109 Oeste 6 -- -- 79
2020-09-14 19:00:00 27.7 8 Oeste 17 Sur 0 -- -- 34
2020-09-14 18:00:00 29.9 10 Sudoeste 22 Oeste 0 -- -- 31
2020-09-14 17:00:00 29.6 10 Sudoeste 24 Sudoeste 0 -- -- 32
2020-09-14 16:00:00 29.9 12 Sudoeste 24 Sudoeste 0 -- -- 32
2020-09-14 15:00:00 28.9 9 Sudoeste 19 Oeste 0 -- -- 35
2020-09-14 14:00:00 26.1 14 Oeste 19 Sudoeste 0 -- -- 40
2020-09-14 13:00:00 26 11 Sudoeste 19 Oeste 0 -- -- 40
2020-09-14 12:00:00 25.7 13 Sudoeste 22 Sudoeste 0 -- -- 39
2020-09-14 11:00:00 24.6 10 Sudoeste 25 Sudoeste 0 -- -- 43
2020-09-14 10:00:00 23.4 12 Sudoeste 25 Sur 0 -- -- 46
2020-09-14 09:00:00 20.6 8 Sur 18 Sur 0 -- -- 52
2020-09-14 08:00:00 19 10 Sur 25 Sur 0 -- -- 55
2020-09-14 07:00:00 19.6 17 Sur 27 Sur 0 -- -- 52
2020-09-14 06:00:00 20.5 17 Sur 31 Sur 0 -- -- 48
2020-09-14 05:00:00 21.5 20 Sur 31 Sur 0 -- -- 45
2020-09-14 04:00:00 23.3 15 Sur 39 Sudoeste 0 -- -- 41
2020-09-14 03:00:00 24.7 14 Sur 32 Sur 0 -- -- 36
2020-09-14 02:00:00 25 12 Sur 22 Sur 0 -- -- 34
2020-09-14 01:00:00 24.8 10 Sudoeste 21 Sur 0 -- -- 34
2020-09-14 00:00:00 24.5 14 Sur 24 Sur 0 -- -- 35
2020-09-13 23:00:00 25.1 12 Sur 20 Sur 0 -- -- 35
2020-09-13 22:00:00 21.8 5 Sudeste 9 Sudeste 0 -- -- 40
2020-09-13 21:00:00 23.4 8 Sudeste 13 Sur 0 -- -- 36
2020-09-13 20:00:00 30.3 0 Calma 6 Oeste 0 -- -- 30
2020-09-13 19:00:00 32.5 3 Sur 17 Sur 0 -- -- 22
2020-09-13 18:00:00 33.3 7 Oeste 20 Sudoeste 0 -- -- 22
2020-09-13 17:00:00 32 6 Oeste 14 Oeste 0 -- -- 25
2020-09-13 16:00:00 31.3 10 Oeste 17 Oeste 0 -- -- 27
2020-09-13 15:00:00 31.9 11 Oeste 19 Oeste 0 -- -- 28
2020-09-13 14:00:00 31.7 7 Oeste 14 Noroeste 0 -- -- 27
2020-09-13 13:00:00 29.4 5 Oeste 13 Noroeste 0 -- -- 30
2020-09-13 12:00:00 26.9 3 Noroeste 12 Este 0 -- -- 34
2020-09-13 11:00:00 22.5 7 Nordeste 12 Norte 0 -- -- 40
2020-09-13 10:00:00 18.5 6 Nordeste 10 Nordeste 0 -- -- 46
2020-09-13 09:00:00 14.3 2 Este 15 Nordeste 0 -- -- 60
2020-09-13 08:00:00 13.7 11 Nordeste 18 Nordeste 0 -- -- 61
2020-09-13 07:00:00 14.4 15 Nordeste 22 Este 0 -- -- 59
2020-09-13 06:00:00 14.2 8 Nordeste 23 Este 0 -- -- 56
2020-09-13 05:00:00 15.1 17 Este 26 Este 0 -- -- 51
2020-09-13 04:00:00 15.2 8 Nordeste 16 Nordeste 0 -- -- 51
2020-09-13 03:00:00 15.6 4 Norte 10 Nordeste 0 -- -- 50
2020-09-13 02:00:00 16.8 4 Nordeste 19 Este 0 -- -- 45
2020-09-13 01:00:00 21.9 12 Este 32 Sudeste 0 -- -- 32
2020-09-13 00:00:00 22.4 15 Sudeste 26 Este 0 -- -- 32
2020-09-12 23:00:00 23.3 13 Sudeste 27 Sudeste 0 -- -- 30
2020-09-12 22:00:00 24 12 Este 26 Nordeste 0 -- -- 25
2020-09-12 21:00:00 25 13 Este 21 Sudeste 0 -- -- 24
2020-09-12 20:00:00 28.2 4 Este 16 Este 0 -- -- 22
2020-09-12 19:00:00 30.2 8 Este 19 Nordeste 0 -- -- 19
2020-09-12 18:00:00 30.8 6 Este 19 Nordeste 0 -- -- 20
2020-09-12 17:00:00 29.9 9 Nordeste 22 Este 0 -- -- 22
2020-09-12 16:00:00 30.1 8 Nordeste 22 Este 0 -- -- 23
2020-09-12 15:00:00 30 7 Este 23 Este 0 -- -- 24
2020-09-12 14:00:00 29.5 12 Este 22 Este 0 -- -- 24
2020-09-12 13:00:00 26.8 9 Nordeste 19 Este 0 -- -- 36
2020-09-12 12:00:00 23.9 10 Nordeste 22 Nordeste 0 -- -- 42
2020-09-12 11:00:00 20.6 10 Este 22 Nordeste 0 -- -- 53
2020-09-12 10:00:00 16.6 14 Este 22 Nordeste 0 -- -- 68
2020-09-12 09:00:00 13.3 10 Nordeste 18 Nordeste 0 -- -- 83
2020-09-12 08:00:00 12.4 7 Nordeste 15 Nordeste 0 -- -- 84
2020-09-12 07:00:00 13.6 9 Este 15 Nordeste 0 -- -- 80
2020-09-12 06:00:00 14 9 Nordeste 18 Este 0 -- -- 76
2020-09-12 05:00:00 15.1 6 Nordeste 17 Este 0 -- -- 73
2020-09-12 04:00:00 15.7 8 Nordeste 15 Norte 0 -- -- 70
2020-09-12 03:00:00 15.9 8 Nordeste 14 Nordeste 0 -- -- 63
2020-09-12 02:00:00 16.5 6 Nordeste 15 Nordeste 0 -- -- 56
2020-09-12 01:00:00 15.6 3 Norte 9 Norte 0 -- -- 50
2020-09-12 00:00:00 19.1 4 Nordeste 16 Este 0 -- -- 39
2020-09-11 23:00:00 16.3 2 Sur 8 Sur 0 -- -- 44
2020-09-11 22:00:00 18 0 Calma 4 Sur 0 -- -- 45
2020-09-11 21:00:00 22.4 2 Este 6 Este 0 -- -- 40
2020-09-11 20:00:00 27.9 3 Nordeste 14 Norte 0 -- -- 30
2020-09-11 19:00:00 29 6 Nordeste 15 Nordeste 0 -- -- 28
2020-09-11 18:00:00 29.8 10 Norte 17 Norte 0 -- -- 28
2020-09-11 17:00:00 29.5 10 Nordeste 19 Nordeste 0 -- -- 28
2020-09-11 16:00:00 28.9 4 Este 17 Norte 0 -- -- 30
2020-09-11 15:00:00 28 7 Norte 15 Norte 0 -- -- 32
2020-09-11 14:00:00 27.1 7 Norte 18 Norte 0 -- -- 33
2020-09-11 13:00:00 25.7 8 Este 18 Sudeste 0 -- -- 35
2020-09-11 12:00:00 23 12 Este 23 Este 0 -- -- 44
2020-09-11 11:00:00 19.6 13 Este 21 Este 0 -- -- 57
2020-09-11 10:00:00 16.9 12 Este 22 Este 0 -- -- 65
2020-09-11 09:00:00 13.6 6 Nordeste 16 Nordeste 0 -- -- 74
2020-09-11 08:00:00 12.5 10 Nordeste 18 Este 0 -- -- 75
2020-09-11 07:00:00 12.7 6 Norte 14 Nordeste 0 -- -- 73
2020-09-11 06:00:00 13.3 7 Norte 13 Norte 0 -- -- 71
2020-09-11 05:00:00 13.9 4 Nordeste 13 Norte 0 -- -- 69
2020-09-11 04:00:00 14.8 9 Nordeste 17 Nordeste 0 -- -- 65
2020-09-11 03:00:00 15.9 9 Norte 19 Norte 0 -- -- 62
2020-09-11 02:00:00 16.3 4 Nordeste 12 Norte 0 -- -- 60
2020-09-11 01:00:00 17.1 2 Noroeste 19 Este 0 -- -- 56
2020-09-11 00:00:00 19.8 12 Este 28 Nordeste 0 -- -- 49
2020-09-10 23:00:00 16.2 6 Nordeste 13 Nordeste 0 -- -- 54
2020-09-10 22:00:00 17.6 0 Calma 4 Sur 0 -- -- 47
2020-09-10 21:00:00 22.3 0 Calma 8 Este 0 -- -- 37
2020-09-10 20:00:00 26.9 6 Este 12 Este 0 -- -- 30
2020-09-10 19:00:00 28.2 6 Nordeste 14 Nordeste 0 -- -- 28
2020-09-10 18:00:00 28.5 6 Nordeste 19 Nordeste 0 -- -- 28
2020-09-10 17:00:00 28.4 5 Nordeste 19 Este 0 -- -- 29
2020-09-10 16:00:00 28.2 9 Nordeste 17 Este 0 -- -- 28
2020-09-10 15:00:00 27.2 8 Nordeste 17 Nordeste 0 -- -- 33
2020-09-10 14:00:00 26 8 Nordeste 15 Este 0 -- -- 37
2020-09-10 13:00:00 24.5 6 Nordeste 16 Nordeste 0 -- -- 40
2020-09-10 12:00:00 22.1 6 Norte 14 Nordeste 0 -- -- 47
2020-09-10 11:00:00 19 9 Nordeste 17 Este 0 -- -- 55
2020-09-10 10:00:00 15.9 8 Nordeste 15 Norte 0 -- -- 67
2020-09-10 09:00:00 13 5 Nordeste 10 Nordeste 0 -- -- 77
2020-09-10 08:00:00 11.4 0 Calma 14 Nordeste 0 -- -- 79
2020-09-10 07:00:00 12.7 11 Nordeste 17 Nordeste 0 -- -- 78
2020-09-10 06:00:00 12.9 6 Nordeste 12 Nordeste 0 -- -- 78
2020-09-10 05:00:00 13.2 3 Este 10 Este 0 -- -- 77
2020-09-10 04:00:00 14.3 3 Este 15 Nordeste 0 -- -- 73
2020-09-10 03:00:00 14.9 6 Nordeste 15 Nordeste 0 -- -- 72
2020-09-10 02:00:00 15.9 5 Nordeste 18 Este 0 -- -- 68
2020-09-10 01:00:00 17.8 12 Este 32 Este 0 -- -- 62
2020-09-10 00:00:00 19.1 18 Este 35 Este 0 -- -- 59
2020-09-09 23:00:00 20.9 19 Este 33 Este 0 -- -- 50
2020-09-09 22:00:00 17.8 4 Sudeste 5 Sur 0 -- -- 46
2020-09-09 21:00:00 22.8 3 Nordeste 12 Este 0 -- -- 33
2020-09-09 20:00:00 26.6 8 Este 18 Este 0 -- -- 26
2020-09-09 19:00:00 28 8 Este 18 Este 0 -- -- 24
2020-09-09 18:00:00 28.5 8 Norte 19 Nordeste 0 -- -- 24
2020-09-09 17:00:00 28.7 9 Nordeste 19 Norte 0 -- -- 24
2020-09-09 16:00:00 28.2 10 Nordeste 20 Noroeste 0 -- -- 25
2020-09-09 15:00:00 27.6 7 Oeste 18 Noroeste 0 -- -- 25
2020-09-09 14:00:00 26.5 7 Norte 18 Nordeste 0 -- -- 29
2020-09-09 13:00:00 25.3 8 Este 16 Norte 0 -- -- 32
2020-09-09 12:00:00 22.4 6 Nordeste 13 Noroeste 0 -- -- 39
2020-09-09 11:00:00 19.6 6 Nordeste 12 Norte 0 -- -- 45
2020-09-09 10:00:00 16.2 5 Nordeste 9 Nordeste 0 -- -- 54
2020-09-09 09:00:00 10.6 5 Sur 9 Sudeste 0 -- -- 74
2020-09-09 08:00:00 9.4 6 Este 14 Nordeste 0 -- -- 75
2020-09-09 07:00:00 9.8 8 Nordeste 13 Nordeste 0 -- -- 74
2020-09-09 06:00:00 9.6 6 Nordeste 12 Nordeste 0 -- -- 71
2020-09-09 05:00:00 9.6 6 Este 12 Nordeste 0 -- -- 71
2020-09-09 04:00:00 10.2 6 Este 11 Nordeste 0 -- -- 68
2020-09-09 03:00:00 11.7 6 Este 17 Nordeste 0 -- -- 60
2020-09-09 02:00:00 14 12 Nordeste 17 Nordeste 0 -- -- 53
2020-09-09 01:00:00 14.1 6 Nordeste 14 Nordeste 0 -- -- 51
2020-09-09 00:00:00 15.5 6 Nordeste 18 Este 0 -- -- 46
2020-09-08 23:00:00 19.3 14 Este 30 Este 0 -- -- 38
2020-09-08 22:00:00 20.4 14 Este 22 Este 0 -- -- 35
2020-09-08 21:00:00 21.7 7 Este 12 Sudeste 0 -- -- 26
2020-09-08 20:00:00 25.2 9 Este 19 Este 0 -- -- 21
2020-09-08 19:00:00 26.4 9 Este 25 Sudeste 0 -- -- 20
2020-09-08 18:00:00 26.7 9 Este 24 Este 0 -- -- 19
2020-09-08 17:00:00 26.6 12 Este 31 Este 0 -- -- 20
2020-09-08 16:00:00 25.6 8 Nordeste 29 Sudeste 0 -- -- 27
2020-09-08 15:00:00 23.9 11 Este 33 Este 0 -- -- 31
2020-09-08 14:00:00 22.4 14 Este 35 Sudeste 0 -- -- 34
2020-09-08 13:00:00 20.8 17 Este 32 Nordeste 0 -- -- 38
2020-09-08 12:00:00 18.3 18 Este 32 Este 0 -- -- 50
2020-09-08 11:00:00 15.6 15 Este 29 Este 0 -- -- 61
2020-09-08 10:00:00 12.5 18 Este 31 Este 0 -- -- 74
2020-09-08 09:00:00 10.1 10 Este 21 Nordeste 0 -- -- 82
2020-09-08 08:00:00 8 3 Nordeste 19 Este 0 -- -- 85
2020-09-08 07:00:00 9.1 15 Este 24 Este 0 -- -- 83
2020-09-08 06:00:00 9.5 17 Este 28 Este 0 -- -- 81
2020-09-08 05:00:00 9.2 9 Este 21 Este 0 -- -- 80
2020-09-08 04:00:00 9.6 12 Este 27 Nordeste 0 -- -- 77
2020-09-08 03:00:00 10.2 15 Este 26 Este 0 -- -- 73
2020-09-08 02:00:00 10.8 10 Este 28 Este 0 -- -- 67
2020-09-08 01:00:00 12 18 Este 34 Este 0 -- -- 65
2020-09-08 00:00:00 13 26 Nordeste 43 Este 0 -- -- 63
2020-09-07 23:00:00 13.9 19 Este 39 Nordeste 0 -- -- 63
2020-09-07 22:00:00 15.5 22 Este 38 Este 0 -- -- 59
2020-09-07 21:00:00 17.1 17 Este 44 Este 0 -- -- 52
2020-09-07 20:00:00 19.1 24 Este 43 Este 0 -- -- 43
2020-09-07 19:00:00 20.5 24 Este 41 Este 0 -- -- 42
2020-09-07 18:00:00 21.3 22 Este 42 Este 0 -- -- 41
2020-09-07 17:00:00 21.5 24 Este 45 Este 0 -- -- 40
2020-09-07 16:00:00 21.7 22 Este 41 Nordeste 0 -- -- 40
2020-09-07 15:00:00 20.8 21 Este 43 Nordeste 0 -- -- 40
2020-09-07 14:00:00 20 18 Este 40 Este 0 -- -- 45
2020-09-07 13:00:00 18.4 22 Este 44 Este 0 -- -- 50
2020-09-07 12:00:00 16.6 26 Este 49 Este 0 -- -- 57
2020-09-07 11:00:00 15.7 23 Este 41 Este 0 -- -- 59
2020-09-07 10:00:00 13.5 17 Este 32 Este 0 -- -- 67
2020-09-07 09:00:00 11 7 Este 18 Este 0 -- -- 83
2020-09-07 08:00:00 9 3 Nordeste 14 Nordeste 0 -- -- 85
2020-09-07 07:00:00 9.9 4 Nordeste 15 Nordeste 0 -- -- 83
2020-09-07 06:00:00 10.8 8 Este 23 Este 0 -- -- 83
2020-09-07 05:00:00 11.3 13 Este 24 Este 0 -- -- 81
2020-09-07 04:00:00 10.8 8 Este 13 Este 0 -- -- 80
2020-09-07 03:00:00 11.9 9 Este 29 Este 0 -- -- 75
2020-09-07 02:00:00 13 14 Este 37 Este 0 -- -- 71
2020-09-07 01:00:00 13.3 22 Este 42 Este 0 -- -- 70
2020-09-07 00:00:00 13.9 23 Este 46 Este 0 -- -- 65
2020-09-06 23:00:00 14.5 22 Este 41 Este 0 -- -- 61
2020-09-06 22:00:00 15.4 25 Este 42 Este 0 -- -- 59
2020-09-06 21:00:00 16.8 26 Este 41 Este 0 -- -- 55
2020-09-06 20:00:00 20.5 21 Este 41 Este 0 -- -- 46
2020-09-06 19:00:00 23.2 17 Este 33 Este 0 -- -- 38
2020-09-06 18:00:00 24.6 19 Este 35 Este 0 -- -- 38
2020-09-06 17:00:00 24.6 18 Este 35 Este 0 -- -- 41
2020-09-06 16:00:00 24.7 18 Este 35 Nordeste 0 -- -- 41
2020-09-06 15:00:00 24.2 18 Nordeste 36 Este 0 -- -- 42
2020-09-06 14:00:00 23.4 19 Este 41 Este 0 -- -- 45
2020-09-06 13:00:00 22.1 19 Este 41 Este 0 -- -- 49
2020-09-06 12:00:00 20.5 20 Este 35 Este 0 -- -- 54
2020-09-06 11:00:00 18.5 21 Este 46 Este 0 -- -- 61
2020-09-06 10:00:00 16.7 21 Este 40 Nordeste 0 -- -- 68
2020-09-06 09:00:00 14.8 15 Este 29 Este 0 -- -- 77
2020-09-06 08:00:00 13.5 13 Este 29 Este 0 -- -- 82
2020-09-06 07:00:00 13.8 17 Nordeste 34 Nordeste 0 -- -- 80
2020-09-06 06:00:00 14.4 15 Este 41 Este 0 -- -- 77
2020-09-06 05:00:00 14.5 21 Nordeste 37 Este 0 -- -- 77
2020-09-06 04:00:00 14.8 15 Nordeste 32 Este 0 -- -- 76
2020-09-06 03:00:00 15.1 14 Este 33 Nordeste 0 -- -- 79
2020-09-06 02:00:00 15.6 18 Este 31 Nordeste 0 -- -- 77
2020-09-06 01:00:00 15.9 17 Este 40 Este 0 -- -- 75
2020-09-06 00:00:00 16.4 16 Este 38 Este 0 -- -- 73
2020-09-05 23:00:00 17.1 18 Este 46 Este 0 -- -- 71
2020-09-05 22:00:00 18.2 29 Este 51 Este 0 -- -- 67
2020-09-05 21:00:00 20 24 Este 53 Este 0 -- -- 62
2020-09-05 20:00:00 23.6 22 Este 41 Este 0 -- -- 53
2020-09-05 19:00:00 27.9 21 Este 38 Nordeste 0 -- -- 42
2020-09-05 18:00:00 29.9 19 Este 33 Este 0 -- -- 35
2020-09-05 17:00:00 30.5 16 Nordeste 33 Este 0 -- -- 33
2020-09-05 16:00:00 30.7 14 Este 30 Este 0 -- -- 31
2020-09-05 15:00:00 29.9 14 Nordeste 31 Nordeste 0 -- -- 34
2020-09-05 14:00:00 28.9 12 Este 28 Este 0 -- -- 35
2020-09-05 13:00:00 27.1 14 Este 28 Este 0 -- -- 40
2020-09-05 12:00:00 24.7 14 Este 29 Este 0 -- -- 46
2020-09-05 11:00:00 22.3 15 Este 26 Este 0 -- -- 50
2020-09-05 10:00:00 19.8 14 Este 31 Este 0 -- -- 57
2020-09-05 09:00:00 16.4 8 Nordeste 19 Nordeste 0 -- -- 65
2020-09-05 08:00:00 14.7 10 Nordeste 18 Este 0 -- -- 65
2020-09-05 07:00:00 14.5 8 Nordeste 15 Nordeste 0 -- -- 60
2020-09-05 06:00:00 14.5 4 Nordeste 13 Nordeste 0 -- -- 61
2020-09-05 05:00:00 16.1 8 Este 18 Este 0 -- -- 57
2020-09-05 04:00:00 15.9 7 Nordeste 13 Norte 0 -- -- 57
2020-09-05 03:00:00 16.9 6 Nordeste 11 Nordeste 0 -- -- 52
2020-09-05 02:00:00 18 8 Este 20 Sur 0 -- -- 47
2020-09-05 01:00:00 17 6 Nordeste 12 Nordeste 0 -- -- 46
2020-09-05 00:00:00 15.3 0 Calma 5 Sudeste 0 -- -- 53
2020-09-04 23:00:00 16.9 4 Sudeste 7 Sudeste 0 -- -- 49
2020-09-04 22:00:00 19.4 3 Sudeste 6 Sudeste 0 -- -- 39
2020-09-04 21:00:00 24.8 3 Este 6 Este 0 -- -- 38
2020-09-04 20:00:00 32 6 Noroeste 11 Noroeste 0 -- -- 20
2020-09-04 19:00:00 32.6 10 Sudoeste 17 Oeste 0 -- -- 19
2020-09-04 18:00:00 33.2 3 Norte 17 Oeste 0 -- -- 18
2020-09-04 17:00:00 32.9 10 Oeste 21 Sudoeste 0 -- -- 19
2020-09-04 16:00:00 32.9 11 Oeste 26 Noroeste 0 -- -- 20
2020-09-04 15:00:00 32.1 9 Noroeste 24 Noroeste 0 -- -- 21
2020-09-04 14:00:00 31 6 Sudoeste 15 Sudoeste 0 -- -- 25
2020-09-04 13:00:00 28.7 5 Oeste 12 Oeste 0 -- -- 27
2020-09-04 12:00:00 25.4 4 Norte 8 Nordeste 0 -- -- 32
2020-09-04 11:00:00 21.5 6 Norte 9 Norte 0 -- -- 40
2020-09-04 10:00:00 17.5 3 Norte 9 Nordeste 0 -- -- 52
2020-09-04 09:00:00 12.3 6 Nordeste 12 Este 0 -- -- 67
2020-09-04 08:00:00 10 3 Nordeste 10 Sudeste 0 -- -- 72
2020-09-04 07:00:00 10.9 9 Nordeste 14 Este 0 -- -- 71
2020-09-04 06:00:00 10.9 4 Este 13 Nordeste 0 -- -- 70
2020-09-04 05:00:00 11.6 3 Este 10 Nordeste 0 -- -- 66
2020-09-04 04:00:00 12.3 4 Este 10 Este 0 -- -- 64
2020-09-04 03:00:00 13.3 5 Este 10 Nordeste 0 -- -- 58
2020-09-04 02:00:00 14.5 5 Este 16 Nordeste 0 -- -- 53
2020-09-04 01:00:00 14.7 4 Nordeste 6 Este 0 -- -- 57
2020-09-04 00:00:00 14.4 5 Este 6 Nordeste 0 -- -- 57
2020-09-03 23:00:00 15.6 0 Calma 4 Sur 0 -- -- 47
2020-09-03 22:00:00 18.8 4 Sudeste 6 Sudeste 0 -- -- 39
2020-09-03 21:00:00 24.8 5 Nordeste 7 Este 0 -- -- 32
2020-09-03 20:00:00 29.4 3 Nordeste 9 Norte 0 -- -- 22
2020-09-03 19:00:00 30.5 3 Norte 13 Noroeste 0 -- -- 20
2020-09-03 18:00:00 30.1 4 Este 13 Este 0 -- -- 22
2020-09-03 17:00:00 30.3 6 Sudoeste 16 Sudoeste 0 -- -- 23
2020-09-03 16:00:00 29.2 8 Nordeste 17 Nordeste 0 -- -- 25
2020-09-03 15:00:00 28.4 6 Nordeste 13 Nordeste 0 -- -- 28
2020-09-03 14:00:00 27.3 7 Oeste 14 Oeste 0 -- -- 30
2020-09-03 13:00:00 25.3 6 Nordeste 12 Nordeste 0 -- -- 34
2020-09-03 12:00:00 22.5 6 Nordeste 15 Nordeste 0 -- -- 36
2020-09-03 11:00:00 18.6 9 Este 16 Nordeste 0 -- -- 54
2020-09-03 10:00:00 15.4 9 Nordeste 15 Este 0 -- -- 67
2020-09-03 09:00:00 11.8 0 Calma 5 Sudeste 0 -- -- 81
2020-09-03 08:00:00 8.5 2 Este 9 Este 0 -- -- 86
2020-09-03 07:00:00 9 0 Calma 10 Este 0 -- -- 81
2020-09-03 06:00:00 11 7 Nordeste 12 Nordeste 0 -- -- 82
2020-09-03 05:00:00 10.3 2 Este 8 Nordeste 0 -- -- 78
2020-09-03 04:00:00 11.7 2 Sur 13 Nordeste 0 -- -- 74
2020-09-03 03:00:00 13.6 7 Nordeste 15 Nordeste 0 -- -- 72
2020-09-03 02:00:00 14.6 8 Nordeste 15 Nordeste 0 -- -- 67
2020-09-03 01:00:00 15.1 8 Nordeste 14 Nordeste 0 -- -- 59
2020-09-03 00:00:00 15.1 2 Oeste 10 Nordeste 0 -- -- 56
2020-09-02 23:00:00 15.2 2 Sur 9 Sur 0 -- -- 52
2020-09-02 22:00:00 17.2 2 Sur 9 Sur 0 -- -- 48
2020-09-02 21:00:00 22.7 5 Este 14 Este 0 -- -- 36
2020-09-02 20:00:00 25.6 5 Este 15 Este 0 -- -- 31
2020-09-02 19:00:00 27 6 Norte 15 Este 0 -- -- 30
2020-09-02 18:00:00 26.9 8 Nordeste 18 Este 0 -- -- 27
2020-09-02 17:00:00 26.9 8 Norte 17 Norte 0 -- -- 30
2020-09-02 16:00:00 26.4 9 Norte 21 Nordeste 0 -- -- 31
2020-09-02 15:00:00 25.6 6 Nordeste 19 Nordeste 0 -- -- 32
2020-09-02 14:00:00 24.3 6 Este 26 Este 0 -- -- 35
2020-09-02 13:00:00 22.9 12 Este 30 Este 0 -- -- 40
2020-09-02 12:00:00 20.9 15 Este 33 Este 0 -- -- 46
2020-09-02 11:00:00 17.9 15 Este 33 Este 0 -- -- 55
2020-09-02 10:00:00 15 14 Este 29 Nordeste 0 -- -- 70
2020-09-02 09:00:00 12.1 12 Nordeste 21 Nordeste 0 -- -- 81
2020-09-02 08:00:00 10.1 7 Nordeste 18 Nordeste 0 -- -- 87
2020-09-02 07:00:00 10.4 7 Nordeste 14 Nordeste 0 -- -- 86
2020-09-02 06:00:00 11 8 Nordeste 20 Nordeste 0 -- -- 83
2020-09-02 05:00:00 11.6 10 Nordeste 26 Nordeste 0 -- -- 81
2020-09-02 04:00:00 12.1 11 Nordeste 20 Nordeste 0 -- -- 79
2020-09-02 03:00:00 13.1 11 Este 22 Este 0 -- -- 75
2020-09-02 02:00:00 13.8 11 Este 25 Este 0 -- -- 73
2020-09-02 01:00:00 14.5 12 Este 40 Este 0 -- -- 69
2020-09-02 00:00:00 15.5 28 Este 49 Este 0 -- -- 62
2020-09-01 23:00:00 16.7 27 Este 47 Este 0 -- -- 59
2020-09-01 22:00:00 19 27 Este 53 Este 0 -- -- 52
2020-09-01 21:00:00 22.6 8 Este 19 Este 0 -- -- 30
2020-09-01 20:00:00 25.5 7 Nordeste 14 Norte 0 -- -- 26
2020-09-01 19:00:00 26.9 4 Noroeste 17 Nordeste 0 -- -- 24
2020-09-01 18:00:00 27.1 9 Este 20 Norte 0 -- -- 24
2020-09-01 17:00:00 27.5 5 Noroeste 17 Nordeste 0 -- -- 22
2020-09-01 16:00:00 26.9 5 Nordeste 16 Norte 0 -- -- 22
2020-09-01 15:00:00 26.2 7 Norte 18 Oeste 0 -- -- 22
2020-09-01 14:00:00 25.4 7 Sudoeste 16 Oeste 0 -- -- 25
2020-09-01 13:00:00 24.5 7 Oeste 16 Noroeste 0 -- -- 28
2020-09-01 12:00:00 22.6 5 Este 12 Sudeste 0 -- -- 27
2020-09-01 11:00:00 19.2 7 Nordeste 15 Nordeste 0 -- -- 41
2020-09-01 10:00:00 17.2 8 Nordeste 15 Nordeste 0 -- -- 50
2020-09-01 09:00:00 13.3 9 Nordeste 15 Nordeste 0 -- -- 63
2020-09-01 08:00:00 12.2 8 Nordeste 12 Nordeste 0 -- -- 63
2020-09-01 07:00:00 12.5 2 Norte 8 Nordeste 0 -- -- 60
2020-09-01 06:00:00 12.9 4 Este 10 Nordeste 0 -- -- 56
2020-09-01 05:00:00 13.2 4 Norte 10 Este 0 -- -- 58
2020-09-01 04:00:00 13.8 5 Este 9 Este 0 -- -- 55
2020-09-01 03:00:00 14.7 5 Nordeste 11 Nordeste 0 -- -- 50
2020-09-01 02:00:00 15.1 8 Sudeste 13 Sudeste 0 -- -- 45
2020-09-01 01:00:00 14.2 2 Este 6 Sudeste 0 -- -- 46
2020-09-01 00:00:00 13.7 2 Este 5 Sudeste 0 -- -- 49
2020-08-31 23:00:00 14.9 2 Sudeste 5 Sudeste 0 -- -- 41
2020-08-31 22:00:00 18 3 Nordeste 8 Nordeste 0 -- -- 35
2020-08-31 21:00:00 19.5 4 Nordeste 8 Norte 0 -- -- 32
2020-08-31 20:00:00 23 3 Oeste 15 Noroeste 0 -- -- 24
2020-08-31 19:00:00 24 10 Oeste 17 Noroeste 0 -- -- 24
2020-08-31 18:00:00 23.4 9 Oeste 20 Noroeste 0 -- -- 25
2020-08-31 17:00:00 23.3 9 Noroeste 18 Oeste 0 -- -- 24
2020-08-31 16:00:00 22.6 6 Norte 19 Oeste 0 -- -- 28
2020-08-31 15:00:00 22.2 9 Oeste 20 Oeste 0 -- -- 31
2020-08-31 14:00:00 21.2 11 Oeste 24 Oeste 0 -- -- 31
2020-08-31 13:00:00 18.7 8 Oeste 15 Oeste 0 -- -- 41
2020-08-31 12:00:00 17.6 3 Sudoeste 9 Nordeste 0 -- -- 45
2020-08-31 11:00:00 14.1 4 Nordeste 12 Nordeste 0 -- -- 61
2020-08-31 10:00:00 10.6 6 Nordeste 10 Nordeste 0 -- -- 74
2020-08-31 09:00:00 7.5 5 Nordeste 13 Este 0 -- -- 82
2020-08-31 08:00:00 5.9 4 Nordeste 13 Nordeste 0 -- -- 87
2020-08-31 07:00:00 6.7 6 Nordeste 17 Nordeste 0 -- -- 85
2020-08-31 06:00:00 7.1 11 Nordeste 17 Nordeste 0 -- -- 84
2020-08-31 05:00:00 7.4 12 Nordeste 17 Nordeste 0 -- -- 82
2020-08-31 04:00:00 8.1 9 Nordeste 15 Nordeste 0 -- -- 80
2020-08-31 03:00:00 8.7 8 Nordeste 14 Nordeste 0 -- -- 77
2020-08-31 02:00:00 9.6 6 Nordeste 12 Nordeste 0 -- -- 73
2020-08-31 01:00:00 10.6 4 Norte 21 Este 0 -- -- 67
2020-08-31 00:00:00 12.1 11 Este 30 Este 0 -- -- 63
2020-08-30 23:00:00 13.2 19 Este 33 Este 0 -- -- 60
2020-08-30 22:00:00 14.9 17 Este 31 Este 0 -- -- 51
2020-08-30 21:00:00 16.9 9 Este 14 Este 0 -- -- 38
2020-08-30 20:00:00 19.4 6 Nordeste 14 Norte 0 -- -- 31
2020-08-30 19:00:00 20.2 7 Norte 18 Nordeste 0 -- -- 32
2020-08-30 18:00:00 19.9 10 Nordeste 21 Nordeste 0 -- -- 33
2020-08-30 17:00:00 19.9 8 Nordeste 26 Este 0 -- -- 36
2020-08-30 16:00:00 18.1 10 Este 24 Este 0 -- -- 41
2020-08-30 15:00:00 17.4 6 Este 17 Nordeste 0 -- -- 42
2020-08-30 14:00:00 17.2 3 Este 15 Este 0 -- -- 43
2020-08-30 13:00:00 16.2 6 Norte 20 Nordeste 0 -- -- 48
2020-08-30 12:00:00 15.7 6 Este 18 Este 0 -- -- 51
2020-08-30 11:00:00 14.8 9 Este 16 Este 0 -- -- 55
2020-08-30 10:00:00 11.9 4 Oeste 7 Oeste 0 -- -- 68
2020-08-30 09:00:00 7.7 0 Calma 3 Sur 0 -- -- 88
2020-08-30 08:00:00 2.9 0 Calma 4 Norte 0 -- -- 88
2020-08-30 07:00:00 3.2 0 Calma 3 Oeste 0 -- -- 87
2020-08-30 06:00:00 3.6 0 Calma 5 Sur 0 -- -- 88
2020-08-30 05:00:00 4.2 3 Sur 5 Sur 0 -- -- 86
2020-08-30 04:00:00 4.9 4 Sur 8 Sudeste 0 -- -- 83
2020-08-30 03:00:00 5.9 2 Nordeste 6 Sudeste 0 -- -- 82
2020-08-30 02:00:00 7.1 5 Sudeste 13 Sur 0 -- -- 76
2020-08-30 01:00:00 9.2 2 Este 6 Nordeste 0 -- -- 69
2020-08-30 00:00:00 10.7 4 Nordeste 12 Este 0 -- -- 63
2020-08-29 23:00:00 12.4 8 Este 21 Nordeste 0 -- -- 60
2020-08-29 22:00:00 14 10 Nordeste 24 Nordeste 0 -- -- 54
2020-08-29 21:00:00 16 15 Nordeste 35 Norte 0 -- -- 50
2020-08-29 20:00:00 18.5 18 Norte 39 Norte 0 -- -- 44
2020-08-29 19:00:00 20.1 21 Norte 39 Norte 0 -- -- 36
2020-08-29 18:00:00 21.3 20 Norte 38 Norte 0 -- -- 38
2020-08-29 17:00:00 19.9 17 Norte 44 Norte 0 -- -- 40
2020-08-29 16:00:00 19.4 19 Norte 44 Norte 0 -- -- 41
2020-08-29 15:00:00 19.1 19 Norte 35 Norte 0 -- -- 41
2020-08-29 14:00:00 19 15 Norte 34 Norte 0 -- -- 42
2020-08-29 13:00:00 18.4 13 Norte 27 Noroeste 0 -- -- 43
2020-08-29 12:00:00 17.8 14 Norte 28 Noroeste 0 -- -- 46
2020-08-29 11:00:00 16.8 17 Norte 29 Noroeste 0 -- -- 52
2020-08-29 10:00:00 14.4 14 Norte 24 Norte 0 -- -- 62
2020-08-29 09:00:00 11.5 13 Norte 24 Noroeste 0 -- -- 75
2020-08-29 08:00:00 7.2 6 Sudeste 8 Sudeste 0 -- -- 85
2020-08-29 07:00:00 7.2 3 Noroeste 5 Oeste 0 -- -- 80
2020-08-29 06:00:00 7.9 3 Noroeste 10 Norte 0 -- -- 77
2020-08-29 05:00:00 8.9 4 Sur 15 Norte 0 -- -- 74
2020-08-29 04:00:00 10.6 8 Norte 14 Noroeste 0 -- -- 67
2020-08-29 03:00:00 12.8 5 Norte 20 Norte 0 -- -- 61
2020-08-29 02:00:00 14.4 7 Norte 15 Norte 0 -- -- 61
2020-08-29 01:00:00 13.5 0 Calma 12 Este 0 -- -- 71
2020-08-29 00:00:00 14.3 3 Este 14 Este 0 -- -- 68
2020-08-28 23:00:00 14.7 8 Este 21 Este 0 -- -- 68
2020-08-28 22:00:00 16.4 12 Este 29 Norte 0 -- -- 63
2020-08-28 21:00:00 19.4 22 Norte 37 Noroeste 0 -- -- 39
2020-08-28 20:00:00 21.7 23 Norte 37 Noroeste 0 -- -- 37
2020-08-28 19:00:00 24.3 21 Noroeste 34 Noroeste 0 -- -- 32
2020-08-28 18:00:00 25.5 18 Noroeste 34 Noroeste 0 -- -- 31
2020-08-28 17:00:00 26.2 15 Norte 30 Noroeste 0 -- -- 28
2020-08-28 16:00:00 26.1 17 Noroeste 28 Noroeste 0 -- -- 31
2020-08-28 15:00:00 25.9 17 Noroeste 30 Noroeste 0 -- -- 36
2020-08-28 14:00:00 25.2 15 Oeste 36 Norte 0 -- -- 40
2020-08-28 13:00:00 23.8 18 Noroeste 31 Noroeste 0 -- -- 44
2020-08-28 12:00:00 22.9 14 Noroeste 30 Noroeste 0 -- -- 43
2020-08-28 11:00:00 21.6 15 Noroeste 33 Noroeste 0 -- -- 44
2020-08-28 10:00:00 19.9 12 Norte 23 Norte 0 -- -- 54
2020-08-28 09:00:00 17.4 7 Oeste 10 Oeste 0 -- -- 78
2020-08-28 08:00:00 14.3 4 Oeste 6 Oeste 0 -- -- 81
2020-08-28 07:00:00 14.5 3 Sudoeste 5 Sudoeste 0 -- -- 80
2020-08-28 06:00:00 15.4 4 Sudeste 5 Sur 0 -- -- 79
2020-08-28 05:00:00 15.8 4 Sur 8 Oeste 0 -- -- 78
2020-08-28 04:00:00 18.2 0 Calma 14 Norte 0 -- -- 67
2020-08-28 03:00:00 19.8 9 Norte 23 Norte 0 -- -- 64
2020-08-28 02:00:00 21.4 5 Nordeste 23 Norte 0 -- -- 60
2020-08-28 01:00:00 22.9 8 Norte 20 Noroeste 0 -- -- 53
2020-08-28 00:00:00 23.5 7 Norte 22 Noroeste 0 -- -- 54
2020-08-27 23:00:00 24.3 9 Norte 23 Noroeste 0 -- -- 53
2020-08-27 22:00:00 26.1 13 Norte 31 Norte 0 -- -- 48
2020-08-27 21:00:00 28.1 14 Norte 26 Norte 0 -- -- 40
2020-08-27 20:00:00 32.1 13 Noroeste 26 Noroeste 0 -- -- 26
2020-08-27 19:00:00 32.7 8 Noroeste 23 Noroeste 0 -- -- 27
2020-08-27 18:00:00 33.4 15 Noroeste 28 Noroeste 0 -- -- 27
2020-08-27 17:00:00 33.3 12 Oeste 27 Oeste 0 -- -- 28
2020-08-27 16:00:00 32.7 13 Oeste 28 Oeste 0 -- -- 30
2020-08-27 15:00:00 31.8 10 Oeste 21 Noroeste 0 -- -- 33
2020-08-27 14:00:00 29.8 9 Noroeste 24 Oeste 0 -- -- 39
2020-08-27 13:00:00 28.3 10 Noroeste 22 Noroeste 0 -- -- 45
2020-08-27 12:00:00 25.5 5 Norte 12 Norte 0 -- -- 56
2020-08-27 11:00:00 22.8 5 Nordeste 11 Norte 0 -- -- 69
2020-08-27 10:00:00 20.5 5 Nordeste 13 Este 0 -- -- 79
2020-08-27 09:00:00 17 4 Este 9 Nordeste 0 -- -- 90
2020-08-27 08:00:00 14.9 5 Nordeste 8 Nordeste 0 -- -- 92
2020-08-27 07:00:00 15.2 4 Este 6 Este 0 -- -- 90
2020-08-27 06:00:00 15.8 4 Este 8 Nordeste 0 -- -- 89
2020-08-27 05:00:00 16 5 Este 7 Este 0 -- -- 86
2020-08-27 04:00:00 17.1 5 Este 10 Nordeste 0 -- -- 81
2020-08-27 03:00:00 18.6 5 Nordeste 9 Nordeste 0 -- -- 75
2020-08-27 02:00:00 19.6 5 Nordeste 11 Nordeste 0 -- -- 72
2020-08-27 01:00:00 17.1 2 Sudeste 8 Sudeste 0 -- -- 65
2020-08-27 00:00:00 17.7 7 Noroeste 14 Noroeste 0 -- -- 64
2020-08-26 23:00:00 19.8 0 Calma 4 Sudeste 0 -- -- 55
2020-08-26 22:00:00 22.4 0 Calma 6 Este 0 -- -- 45
2020-08-26 21:00:00 28.8 4 Nordeste 10 Oeste 0 -- -- 33
2020-08-26 20:00:00 32.4 8 Noroeste 21 Noroeste 0 -- -- 22
2020-08-26 19:00:00 33.2 10 Noroeste 20 Noroeste 0 -- -- 22
2020-08-26 18:00:00 33.6 13 Noroeste 23 Noroeste 0 -- -- 24
2020-08-26 17:00:00 33.4 8 Oeste 19 Oeste 0 -- -- 24
2020-08-26 16:00:00 32.6 8 Noroeste 19 Oeste 0 -- -- 26
2020-08-26 15:00:00 31.1 6 Sudoeste 15 Oeste 0 -- -- 32
2020-08-26 14:00:00 29.3 4 Nordeste 14 Norte 0 -- -- 38
2020-08-26 13:00:00 26.9 6 Nordeste 18 Este 0 -- -- 44
2020-08-26 12:00:00 24.6 10 Nordeste 18 Este 0 -- -- 51
2020-08-26 11:00:00 21.9 9 Nordeste 19 Este 0 -- -- 61
2020-08-26 10:00:00 19.1 10 Nordeste 19 Este 0 -- -- 71
2020-08-26 09:00:00 16.8 7 Nordeste 14 Nordeste 0 -- -- 81
2020-08-26 08:00:00 13.2 4 Este 12 Nordeste 0 -- -- 87
2020-08-26 07:00:00 14.3 5 Nordeste 12 Nordeste 0 -- -- 84
2020-08-26 06:00:00 14.6 6 Nordeste 13 Este 0 -- -- 83
2020-08-26 05:00:00 16.1 8 Nordeste 18 Nordeste 0 -- -- 78
2020-08-26 04:00:00 16.2 6 Este 17 Este 0 -- -- 78
2020-08-26 03:00:00 16.5 5 Este 10 Este 0 -- -- 73
2020-08-26 02:00:00 18 7 Nordeste 14 Este 0 -- -- 67
2020-08-26 01:00:00 19.7 8 Nordeste 19 Nordeste 0 -- -- 61
2020-08-26 00:00:00 20.7 6 Nordeste 21 Nordeste 0 -- -- 49
2020-08-25 23:00:00 19.3 4 Este 9 Sur 0 -- -- 42
2020-08-25 22:00:00 20.7 6 Sur 11 Sur 0 -- -- 39
2020-08-25 21:00:00 27.4 6 Noroeste 18 Oeste 0 -- -- 24
2020-08-25 20:00:00 32.2 13 Oeste 27 Oeste 0 -- -- 17
2020-08-25 19:00:00 33.8 14 Oeste 24 Oeste 0 -- -- 19
2020-08-25 18:00:00 34.1 12 Oeste 27 Oeste 0 -- -- 22
2020-08-25 17:00:00 33.6 18 Oeste 31 Oeste 0 -- -- 21
2020-08-25 16:00:00 32.8 15 Oeste 33 Noroeste 0 -- -- 24
2020-08-25 15:00:00 32.3 12 Sudoeste 25 Sudoeste 0 -- -- 28
2020-08-25 14:00:00 31.1 12 Sudoeste 19 Noroeste 0 -- -- 29
2020-08-25 13:00:00 29.2 10 Noroeste 18 Oeste 0 -- -- 30
2020-08-25 12:00:00 27 6 Oeste 13 Noroeste 0 -- -- 35
2020-08-25 11:00:00 24.1 4 Nordeste 8 Norte 0 -- -- 44
2020-08-25 10:00:00 20.1 2 Noroeste 4 Noroeste 0 -- -- 57
2020-08-25 09:00:00 15 3 Nordeste 8 Nordeste 0 -- -- 73
2020-08-25 08:00:00 10.8 4 Este 8 Nordeste 0 -- -- 84
2020-08-25 07:00:00 11.2 4 Este 8 Nordeste 0 -- -- 85
2020-08-25 06:00:00 10.5 0 Calma 3 Este 0 -- -- 81
2020-08-25 05:00:00 11.6 0 Calma 6 Sur 0 -- -- 78
2020-08-25 04:00:00 12.3 4 Sur 11 Oeste 0 -- -- 80
2020-08-25 03:00:00 12.3 0 Calma 4 Sur 0 -- -- 77
2020-08-25 02:00:00 12.9 4 Oeste 8 Oeste 0 -- -- 74
2020-08-25 01:00:00 12.9 4 Este 6 Este 0 -- -- 73
2020-08-25 00:00:00 14.1 0 Calma 4 Sudeste 0 -- -- 65
2020-08-24 23:00:00 16 2 Este 5 Sudeste 0 -- -- 63
2020-08-24 22:00:00 20.2 4 Este 8 Este 0 -- -- 50
2020-08-24 21:00:00 26.1 0 Calma 8 Nordeste 0 -- -- 37
2020-08-24 20:00:00 28.8 4 Nordeste 11 Nordeste 0 -- -- 27
2020-08-24 19:00:00 29.8 3 Sur 12 Noroeste 0 -- -- 25
2020-08-24 18:00:00 29.6 5 Sur 17 Sudoeste 0 -- -- 25
2020-08-24 17:00:00 28.9 3 Sur 15 Norte 0 -- -- 27
2020-08-24 16:00:00 28.5 8 Noroeste 16 Norte 0 -- -- 28
2020-08-24 15:00:00 27 8 Norte 19 Nordeste 0 -- -- 34
2020-08-24 14:00:00 25.9 9 Nordeste 21 Este 0 -- -- 39
2020-08-24 13:00:00 24.3 11 Este 25 Nordeste 0 -- -- 46
2020-08-24 12:00:00 22.4 13 Este 26 Este 0 -- -- 51
2020-08-24 11:00:00 20 12 Este 25 Nordeste 0 -- -- 57
2020-08-24 10:00:00 16.8 16 Este 33 Nordeste 0 -- -- 69
2020-08-24 09:00:00 14.6 12 Nordeste 22 Nordeste 0 -- -- 79
2020-08-24 08:00:00 12.1 6 Nordeste 15 Nordeste 0 -- -- 86
2020-08-24 07:00:00 12.7 6 Nordeste 19 Nordeste 0 -- -- 85
2020-08-24 06:00:00 12.9 9 Nordeste 17 Este 0 -- -- 86
2020-08-24 05:00:00 13.3 8 Nordeste 18 Nordeste 0 -- -- 86
2020-08-24 04:00:00 13.8 6 Nordeste 17 Nordeste 0 -- -- 84
2020-08-24 03:00:00 14.4 8 Nordeste 18 Este 0 -- -- 82
2020-08-24 02:00:00 15.4 9 Nordeste 23 Nordeste 0 -- -- 78
2020-08-24 01:00:00 16.7 10 Nordeste 32 Este 0 -- -- 73
2020-08-24 00:00:00 18.4 19 Este 35 Este 0 -- -- 66
2020-08-23 23:00:00 20.6 22 Este 37 Este 0 -- -- 55
2020-08-23 22:00:00 20.5 4 Nordeste 8 Nordeste 0 -- -- 42
2020-08-23 21:00:00 25.1 4 Este 12 Nordeste 0 -- -- 32
2020-08-23 20:00:00 26.9 7 Nordeste 15 Norte 0 -- -- 27
2020-08-23 19:00:00 27.3 6 Nordeste 16 Nordeste 0 -- -- 26
2020-08-23 18:00:00 28.4 10 Nordeste 17 Norte 0 -- -- 25
2020-08-23 17:00:00 27.4 6 Nordeste 17 Este 0 -- -- 25
2020-08-23 16:00:00 27.3 10 Norte 22 Norte 0 -- -- 31
2020-08-23 15:00:00 26.2 7 Nordeste 21 Nordeste 0 -- -- 35
2020-08-23 14:00:00 24.8 10 Este 27 Este 0 -- -- 44
2020-08-23 13:00:00 22.8 12 Nordeste 24 Este 0 -- -- 50
2020-08-23 12:00:00 21.4 14 Este 27 Este 0 -- -- 54
2020-08-23 11:00:00 18.8 14 Este 30 Este 0 -- -- 68
2020-08-23 10:00:00 16.2 15 Este 28 Este 0 -- -- 80
2020-08-23 09:00:00 14 7 Nordeste 15 Este 0 -- -- 88
2020-08-23 08:00:00 11.8 7 Nordeste 15 Nordeste 0 -- -- 91
2020-08-23 07:00:00 12.1 6 Nordeste 13 Nordeste 0 -- -- 90
2020-08-23 06:00:00 12.7 5 Nordeste 15 Este 0 -- -- 89
2020-08-23 05:00:00 13.2 6 Nordeste 14 Nordeste 0 -- -- 88
2020-08-23 04:00:00 13.8 5 Nordeste 13 Este 0 -- -- 86
2020-08-23 03:00:00 14.4 7 Nordeste 22 Este 0 -- -- 86
2020-08-23 02:00:00 14.9 12 Nordeste 24 Nordeste 0 -- -- 85
2020-08-23 01:00:00 15.6 9 Nordeste 24 Este 0 -- -- 82
2020-08-23 00:00:00 16.2 13 Nordeste 26 Nordeste 0 -- -- 78
2020-08-22 23:00:00 14.6 0 Calma 4 Este 0 -- -- 65
2020-08-22 22:00:00 18 2 Este 6 Nordeste 0 -- -- 55
2020-08-22 21:00:00 24.3 3 Nordeste 12 Norte 0 -- -- 33
2020-08-22 20:00:00 26.3 9 Norte 18 Norte 0 -- -- 27
2020-08-22 19:00:00 27.4 9 Noroeste 18 Oeste 0 -- -- 26
2020-08-22 18:00:00 27.2 8 Noroeste 18 Noroeste 0 -- -- 27
2020-08-22 17:00:00 26.9 7 Norte 28 Noroeste 0 -- -- 29
2020-08-22 16:00:00 25.9 6 Noroeste 18 Oeste 0 -- -- 29
2020-08-22 15:00:00 24.8 10 Noroeste 21 Oeste 0 -- -- 33
2020-08-22 14:00:00 23.2 7 Sudoeste 15 Norte 0 -- -- 41
2020-08-22 13:00:00 20.5 4 Nordeste 16 Norte 0 -- -- 57
2020-08-22 12:00:00 18.1 8 Nordeste 12 Nordeste 0 -- -- 72
2020-08-22 11:00:00 15.8 5 Norte 12 Nordeste 0 -- -- 82
2020-08-22 10:00:00 15 6 Nordeste 10 Nordeste 0 -- -- 82
2020-08-22 09:00:00 12.8 0 Calma 3 Noroeste 0 -- -- 92
2020-08-22 08:00:00 8.5 0 Calma 4 Sur 0 -- -- 92
2020-08-22 07:00:00 8.9 2 Oeste 4 Noroeste 0 -- -- 90
2020-08-22 06:00:00 10 0 Calma 4 Sudoeste 0 -- -- 90
2020-08-22 05:00:00 11 0 Calma 5 Norte 0 -- -- 88
2020-08-22 04:00:00 12.1 3 Sudoeste 11 Norte 0 -- -- 87
2020-08-22 03:00:00 12.7 0 Calma 7 Norte 0 -- -- 84
2020-08-22 02:00:00 14.3 3 Sur 12 Norte 0 -- -- 82
2020-08-22 01:00:00 16.4 5 Nordeste 19 Norte 0 -- -- 73
2020-08-22 00:00:00 14.4 3 Sudoeste 7 Oeste 0 -- -- 78
2020-08-21 23:00:00 16.1 5 Sudoeste 8 Sudoeste 0 -- -- 71
2020-08-21 22:00:00 18.2 6 Sudoeste 17 Oeste 0 -- -- 62
2020-08-21 21:00:00 21.6 14 Oeste 29 Oeste 0 -- -- 47
2020-08-21 20:00:00 24.1 21 Oeste 33 Oeste 0 -- -- 37
2020-08-21 19:00:00 24.7 19 Oeste 32 Oeste 0 -- -- 33
2020-08-21 18:00:00 25.8 21 Oeste 35 Oeste 0 -- -- 40
2020-08-21 17:00:00 24.6 19 Oeste 36 Oeste 0 -- -- 58
2020-08-21 16:00:00 22.8 16 Oeste 30 Oeste 0 -- -- 67
2020-08-21 15:00:00 20.9 14 Noroeste 21 Noroeste 0 -- -- 76
2020-08-21 14:00:00 20.4 11 Noroeste 17 Oeste 0 -- -- 80
2020-08-21 13:00:00 19.3 12 Noroeste 18 Noroeste 0 -- -- 83
2020-08-21 12:00:00 19.1 6 Noroeste 12 Noroeste 0.2 -- -- 87
2020-08-21 11:00:00 18.6 3 Oeste 12 Oeste 0.2 -- -- 88
2020-08-21 10:00:00 18.3 5 Oeste 10 Oeste 0 -- -- 89
2020-08-21 09:00:00 17.7 6 Oeste 13 Oeste 0 -- -- 91
2020-08-21 08:00:00 17.7 6 Oeste 13 Sudoeste 0.2 -- -- 93
2020-08-21 07:00:00 17.6 7 Sudoeste 14 Oeste 0 -- -- 93
2020-08-21 06:00:00 17.4 10 Sudoeste 17 Sudoeste 0.2 -- -- 92
2020-08-21 05:00:00 17.7 10 Sudoeste 16 Sudoeste 0 -- -- 89
2020-08-21 04:00:00 17.4 8 Sudoeste 16 Sudoeste 0 -- -- 89
2020-08-21 03:00:00 17.1 9 Sudoeste 15 Oeste 0 -- -- 89
2020-08-21 02:00:00 17.2 8 Oeste 18 Sudoeste 0 -- -- 90
2020-08-21 01:00:00 17.1 12 Sudoeste 18 Oeste 1.2 -- -- 90
2020-08-21 00:00:00 17.3 9 Oeste 29 Oeste 4.4 -- -- 90